createdAt,value
2023-07-30T00:01:35.460Z,16.80
2023-07-30T00:06:39.689Z,16.80
2023-07-30T00:11:42.510Z,16.70
2023-07-30T00:16:45.363Z,16.60
2023-07-30T00:21:49.486Z,16.60
2023-07-30T00:26:52.290Z,16.50
2023-07-30T00:31:55.074Z,16.70
2023-07-30T00:36:59.175Z,16.60
2023-07-30T00:42:01.964Z,16.60
2023-07-30T00:47:05.286Z,16.50
2023-07-30T00:52:10.061Z,16.40
2023-07-30T00:57:13.394Z,16.50
2023-07-30T01:02:16.396Z,16.50
2023-07-30T01:07:20.669Z,16.50
2023-07-30T01:12:24.554Z,16.30
2023-07-30T01:17:27.631Z,16.30
2023-07-30T01:22:31.768Z,16.30
2023-07-30T01:27:40.594Z,16.20
2023-07-30T01:32:43.812Z,16.30
2023-07-30T01:37:48.808Z,16.20
2023-07-30T01:42:52.497Z,16.20
2023-07-30T01:47:55.437Z,16.10
2023-07-30T01:52:59.612Z,16.20
2023-07-30T01:58:02.460Z,16.10
2023-07-30T02:03:05.582Z,16.00
2023-07-30T02:08:09.902Z,16.00
2023-07-30T02:13:12.679Z,16.20
2023-07-30T02:18:15.522Z,16.20
2023-07-30T02:23:19.674Z,16.10
2023-07-30T02:28:22.524Z,16.10
2023-07-30T02:33:25.399Z,16.30
2023-07-30T02:38:29.600Z,16.30
2023-07-30T02:43:32.432Z,16.30
2023-07-30T02:48:35.223Z,16.40
2023-07-30T02:53:39.352Z,16.40
2023-07-30T02:58:42.126Z,16.40
2023-07-30T03:03:44.946Z,16.60
2023-07-30T03:08:49.091Z,16.60
2023-07-30T03:13:51.866Z,16.70
2023-07-30T03:18:54.651Z,16.70
2023-07-30T03:23:58.734Z,16.80
2023-07-30T03:29:01.756Z,16.80
2023-07-30T03:34:04.614Z,16.90
2023-07-30T03:39:08.744Z,16.90
2023-07-30T03:44:11.530Z,16.90
2023-07-30T03:49:14.365Z,16.90
2023-07-30T03:54:18.516Z,16.90
2023-07-30T03:59:21.325Z,16.90
2023-07-30T04:04:24.105Z,17.00
2023-07-30T04:09:28.629Z,17.10
2023-07-30T04:14:31.395Z,17.10
2023-07-30T04:19:34.220Z,17.10
2023-07-30T04:24:38.370Z,17.20
2023-07-30T04:29:41.266Z,17.40
2023-07-30T04:34:44.167Z,17.40
2023-07-30T04:39:48.329Z,17.60
2023-07-30T04:44:51.117Z,17.50
2023-07-30T04:49:53.963Z,17.30
2023-07-30T04:54:58.121Z,17.20
2023-07-30T05:00:00.951Z,17.30
2023-07-30T05:05:03.953Z,17.40
2023-07-30T05:10:11.818Z,17.50
2023-07-30T05:15:14.689Z,17.70
2023-07-30T05:20:17.617Z,17.90
2023-07-30T05:25:21.728Z,18.10
2023-07-30T05:30:24.528Z,18.30
2023-07-30T05:35:27.286Z,18.40
2023-07-30T05:40:31.412Z,18.50
2023-07-30T05:45:35.492Z,18.50
2023-07-30T05:50:38.359Z,18.80
2023-07-30T05:55:42.457Z,18.90
2023-07-30T06:00:45.321Z,19.30
2023-07-30T06:05:48.196Z,19.50
2023-07-30T06:10:52.556Z,20.10
2023-07-30T06:16:10.689Z,20.90
2023-07-30T06:21:33.965Z,21.10
2023-07-30T06:27:15.016Z,20.90
2023-07-30T06:39:25.406Z,21.10
2023-07-30T06:44:45.999Z,21.40
2023-07-30T06:49:53.572Z,21.20
2023-07-30T06:55:21.656Z,21.20
2023-07-30T07:01:15.362Z,21.30
2023-07-30T07:13:07.013Z,22.00
2023-07-30T07:18:51.751Z,22.50
2023-07-30T07:24:24.622Z,22.10
2023-07-30T07:42:12.007Z,23.00
2023-07-30T07:47:48.309Z,24.20
2023-07-30T07:53:26.616Z,24.80
2023-07-30T07:58:59.976Z,25.60
2023-07-30T08:04:49.056Z,26.20
2023-07-30T08:16:39.516Z,28.10
2023-07-30T08:22:33.539Z,28.10
2023-07-30T08:28:45.531Z,28.10
2023-07-30T08:34:49.937Z,27.50
2023-07-30T08:40:29.594Z,27.80
2023-07-30T08:46:19.217Z,28.60
2023-07-30T08:52:27.584Z,29.70
2023-07-30T08:58:16.583Z,28.80
2023-07-30T09:03:52.013Z,28.90
2023-07-30T09:09:43.626Z,30.10
2023-07-30T09:15:35.257Z,30.80
2023-07-30T09:27:26.492Z,36.20
2023-07-30T09:33:23.728Z,36.00
2023-07-30T09:39:13.124Z,35.40
2023-07-30T09:56:00.703Z,31.40
2023-07-30T10:08:16.901Z,29.80
2023-07-30T10:19:47.496Z,30.20
2023-07-30T10:25:44.877Z,29.50
2023-07-30T10:31:52.917Z,29.20
2023-07-30T10:37:19.013Z,28.40
2023-07-30T10:49:02.115Z,28.50
2023-07-30T10:54:38.351Z,28.00
2023-07-30T11:00:58.616Z,28.20
2023-07-30T11:06:33.761Z,31.90
2023-07-30T11:18:07.350Z,34.70
2023-07-30T11:23:13.107Z,39.90
2023-07-30T11:29:18.224Z,39.70
2023-07-30T11:35:40.430Z,39.00
2023-07-30T11:47:24.120Z,40.00
2023-07-30T12:05:55.141Z,38.80
2023-07-30T12:11:44.460Z,41.10
2023-07-30T12:17:15.718Z,43.40
2023-07-30T12:23:25.868Z,40.80
2023-07-30T12:29:05.959Z,39.80
2023-07-30T12:34:41.355Z,40.50
2023-07-30T12:40:43.913Z,39.50
2023-07-30T12:46:57.635Z,39.90
2023-07-30T12:53:02.379Z,39.00
2023-07-30T12:58:47.840Z,35.30
2023-07-30T13:04:36.344Z,34.20
2023-07-30T13:22:25.294Z,34.30
2023-07-30T13:39:50.294Z,34.80
2023-07-30T13:51:42.533Z,36.20
2023-07-30T13:57:37.632Z,35.60
2023-07-30T14:09:34.422Z,32.90
2023-07-30T14:15:41.255Z,32.60
2023-07-30T14:21:45.740Z,32.50
2023-07-30T14:39:56.034Z,32.70
2023-07-30T14:45:41.622Z,30.10
2023-07-30T14:51:50.461Z,28.90
2023-07-30T14:57:35.012Z,28.20
2023-07-30T15:02:49.324Z,27.60
2023-07-30T15:13:54.121Z,27.20
2023-07-30T15:19:12.417Z,27.00
2023-07-30T15:24:25.499Z,25.20
2023-07-30T15:29:38.667Z,23.20
2023-07-30T15:34:45.801Z,21.70
2023-07-30T15:39:49.232Z,21.00
2023-07-30T15:44:52.265Z,20.70
2023-07-30T15:49:56.668Z,21.00
2023-07-30T15:55:07.439Z,21.00
2023-07-30T16:00:50.657Z,21.20
2023-07-30T16:06:10.611Z,21.50
2023-07-30T16:11:20.781Z,22.00
2023-07-30T16:16:48.691Z,22.70
2023-07-30T16:36:05.011Z,22.80
2023-07-30T16:42:06.753Z,22.70
2023-07-30T16:54:30.876Z,23.00
2023-07-30T17:05:50.158Z,23.10
2023-07-30T17:10:56.322Z,22.70
2023-07-30T17:16:06.353Z,22.10
2023-07-30T17:21:12.947Z,21.90
2023-07-30T17:26:18.352Z,21.50
2023-07-30T17:31:25.975Z,21.00
2023-07-30T17:36:31.108Z,20.60
2023-07-30T17:41:34.651Z,20.30
2023-07-30T17:46:46.893Z,20.40
2023-07-30T17:51:52.897Z,20.20
2023-07-30T17:56:57.338Z,19.90
2023-07-30T18:02:04.639Z,19.60
2023-07-30T18:07:09.523Z,19.90
2023-07-30T18:12:13.756Z,19.90
2023-07-30T18:17:18.390Z,20.30
2023-07-30T18:22:22.486Z,20.20
2023-07-30T18:27:27.320Z,20.00
2023-07-30T18:32:35.484Z,19.70
2023-07-30T18:37:39.478Z,19.50
2023-07-30T18:42:43.387Z,19.20
2023-07-30T18:47:48.117Z,19.00
2023-07-30T18:52:51.110Z,18.60
2023-07-30T18:57:54.202Z,18.40
2023-07-30T19:02:58.920Z,18.20
2023-07-30T19:08:03.941Z,18.00
2023-07-30T19:18:34.198Z,17.70
2023-07-30T19:23:54.101Z,17.50
2023-07-30T19:28:58.280Z,17.40
2023-07-30T19:34:11.085Z,17.20
2023-07-30T19:39:14.042Z,17.10
2023-07-30T19:44:16.843Z,17.00
2023-07-30T19:49:50.336Z,17.00
2023-07-30T19:54:54.979Z,16.90
2023-07-30T19:59:57.875Z,17.30
2023-07-30T20:05:09.901Z,17.30
2023-07-30T20:10:14.966Z,17.20
2023-07-30T20:15:21.970Z,17.00
2023-07-30T20:20:26.151Z,17.00
2023-07-30T20:25:33.176Z,17.00
2023-07-30T20:30:37.074Z,17.10
2023-07-30T20:35:41.213Z,16.80
2023-07-30T20:40:44.094Z,16.90
2023-07-30T20:45:47.187Z,16.80
2023-07-30T20:50:52.783Z,16.80
2023-07-30T20:55:55.707Z,16.90
2023-07-30T21:00:58.553Z,16.60
2023-07-30T21:06:02.686Z,16.60
2023-07-30T21:11:07.019Z,16.60
2023-07-30T21:16:09.967Z,16.50
2023-07-30T21:21:14.423Z,16.60
2023-07-30T21:26:17.293Z,16.60
2023-07-30T21:31:20.094Z,16.80
2023-07-30T21:36:31.691Z,16.80
2023-07-30T21:41:35.253Z,16.90
2023-07-30T21:46:38.447Z,16.90
2023-07-30T21:51:42.756Z,16.90
2023-07-30T21:56:45.525Z,16.80
2023-07-30T22:01:48.354Z,16.70
2023-07-30T22:06:52.472Z,16.70
2023-07-30T22:11:55.306Z,16.60
2023-07-30T22:16:58.161Z,16.50
2023-07-30T22:22:03.333Z,16.40
2023-07-30T22:27:06.913Z,16.50
2023-07-30T22:32:09.804Z,16.60
2023-07-30T22:37:13.993Z,16.70
2023-07-30T22:42:16.768Z,16.60
2023-07-30T22:47:19.782Z,16.60
2023-07-30T22:52:24.184Z,16.60
2023-07-30T22:57:27.016Z,16.60
2023-07-30T23:02:29.953Z,16.20
2023-07-30T23:07:34.133Z,16.20
2023-07-30T23:12:36.969Z,16.30
2023-07-30T23:17:39.932Z,16.30
2023-07-30T23:22:44.118Z,16.00
2023-07-30T23:27:46.881Z,15.80
2023-07-30T23:32:49.695Z,15.60
2023-07-30T23:37:53.835Z,15.50
2023-07-30T23:42:56.586Z,15.30
2023-07-30T23:47:59.493Z,15.40
2023-07-30T23:53:03.706Z,15.50
2023-07-30T23:58:06.481Z,15.80
